Time;durP1;ratioP1;P1;durP2;ratioP2;P2;SDS_P1;SDS_P2;PMS_P1;PMS_P2;Temp;Humidity;BMP_temperature;BMP_pressure;BME280_temperature;BME280_humidity;BME280_pressure;Samples;Min_cycle;Max_cycle;Signal;HPM_P1;HPM_P2
2023/06/20 00:00:29;;;;;;;0.93;0.93;;;;;;;20.90;87.08;95158.06;4329154;32;20267;-63
2023/06/20 00:02:58;;;;;;;1.10;1.10;;;;;;;20.85;88.06;95161.06;4369859;32;20188;-63
2023/06/20 00:05:23;;;;;;;1.53;1.47;;;;;;;20.75;87.84;95159.00;4372307;32;20219;-63
2023/06/20 00:07:49;;;;;;;0.60;0.60;;;;;;;20.87;86.47;95164.19;4323230;32;20243;-64
2023/06/20 00:10:15;;;;;;;0.97;0.97;;;;;;;20.87;86.43;95166.91;4288934;32;20248;-63
2023/06/20 00:12:40;;;;;;;1.07;1.07;;;;;;;20.97;86.77;95168.97;4354648;32;20189;-63
2023/06/20 00:15:09;;;;;;;2.40;1.53;;;;;;;20.92;88.08;95159.28;4343135;32;20212;-63
2023/06/20 00:17:41;;;;;;;1.37;1.37;;;;;;;20.75;87.14;95159.78;4310886;32;20281;-63
2023/06/20 00:20:10;;;;;;;0.97;0.97;;;;;;;20.66;87.59;95167.34;4359422;32;20189;-63
2023/06/20 00:22:37;;;;;;;0.77;0.77;;;;;;;20.79;87.36;95170.59;4370767;32;20196;-63
2023/06/20 00:25:04;;;;;;;1.20;1.20;;;;;;;20.59;87.89;95173.38;4331778;32;20185;-63
2023/06/20 00:27:34;;;;;;;0.87;0.87;;;;;;;20.65;87.87;95175.78;4341594;32;20196;-63
2023/06/20 00:30:00;;;;;;;1.60;1.50;;;;;;;20.79;86.63;95178.69;4339407;32;20215;-63
2023/06/20 00:32:26;;;;;;;0.53;0.53;;;;;;;20.78;86.90;95169.84;4328599;32;20177;-63
2023/06/20 00:34:58;;;;;;;0.77;0.77;;;;;;;20.82;86.49;95169.88;4339646;32;20193;-63
2023/06/20 00:37:28;;;;;;;1.23;1.23;;;;;;;20.83;86.72;95168.75;4382390;32;20223;-63
2023/06/20 00:39:54;;;;;;;1.67;1.57;;;;;;;20.74;86.92;95162.84;4370456;32;20257;-63
2023/06/20 00:42:23;;;;;;;1.20;1.20;;;;;;;20.78;87.24;95156.38;4375711;32;20205;-63
2023/06/20 00:44:53;;;;;;;0.90;0.90;;;;;;;20.61;88.16;95154.16;4383784;32;20180;-63
2023/06/20 00:47:25;;;;;;;1.03;1.03;;;;;;;20.64;87.08;95152.66;4350510;32;20257;-63
2023/06/20 00:49:53;;;;;;;2.27;1.40;;;;;;;20.72;88.01;95147.03;4366673;32;20244;-63
2023/06/20 00:52:27;;;;;;;0.90;0.90;;;;;;;20.73;87.50;95145.13;4341994;32;20189;-64
2023/06/20 00:54:52;;;;;;;0.87;0.73;;;;;;;20.73;87.43;95145.13;4381909;32;20244;-63
2023/06/20 00:57:19;;;;;;;2.37;1.80;;;;;;;20.81;87.34;95152.16;4378840;32;20184;-63
2023/06/20 00:59:49;;;;;;;1.03;1.03;;;;;;;20.71;87.63;95148.16;4347091;32;20191;-63
2023/06/20 01:02:15;;;;;;;0.80;0.80;;;;;;;20.81;87.27;95161.03;4364115;32;20202;-64
2023/06/20 01:04:45;;;;;;;3.13;1.47;;;;;;;20.79;87.39;95165.22;4366328;32;20191;-63
2023/06/20 01:07:36;;;;;;;1.60;1.50;;;;;;;20.81;87.49;95155.63;4387197;32;20184;-63
2023/06/20 01:10:42;;;;;;;0.83;0.83;;;;;;;20.80;87.64;95154.06;4327875;32;20205;-63
2023/06/20 01:13:40;;;;;;;1.20;1.20;;;;;;;20.65;87.93;95155.00;4356238;32;20223;-63
2023/06/20 01:16:59;;;;;;;0.90;0.90;;;;;;;20.74;86.78;95166.31;4330634;32;20207;-63
2023/06/20 01:20:04;;;;;;;0.53;0.53;;;;;;;20.77;87.74;95167.53;4293765;33;20209;-63
2023/06/20 01:23:05;;;;;;;1.10;1.10;;;;;;;20.52;87.92;95164.44;4286883;32;20232;-64
2023/06/20 01:26:10;;;;;;;1.20;1.20;;;;;;;20.69;87.89;95158.53;4331483;32;20256;-63
2023/06/20 01:28:46;;;;;;;1.70;1.30;;;;;;;20.78;87.69;95156.38;4375341;32;20188;-63
2023/06/20 01:31:18;;;;;;;0.60;0.60;;;;;;;20.71;87.50;95153.56;4352647;32;20218;-63
2023/06/20 01:34:04;;;;;;;0.80;0.80;;;;;;;20.62;87.82;95150.31;4342707;32;20180;-63
2023/06/20 01:36:35;;;;;;;1.27;1.23;;;;;;;20.70;87.78;95165.47;4358833;32;20265;-63
2023/06/20 01:39:06;;;;;;;1.53;1.43;;;;;;;20.72;87.20;95159.72;4333422;32;20268;-63
2023/06/20 01:41:41;;;;;;;1.17;1.10;;;;;;;20.72;88.35;95170.53;4378372;32;20185;-63
2023/06/20 01:44:11;;;;;;;0.93;0.93;;;;;;;20.82;88.13;95164.50;4344708;32;20205;-62
2023/06/20 01:46:37;;;;;;;0.63;0.63;;;;;;;20.74;87.69;95170.94;4343200;32;20201;-63
2023/06/20 01:49:05;;;;;;;0.70;0.70;;;;;;;20.70;88.18;95178.97;4350353;32;20243;-63
2023/06/20 01:51:32;;;;;;;0.77;0.77;;;;;;;20.73;88.30;95177.47;4347408;32;20189;-63
2023/06/20 01:54:02;;;;;;;0.73;0.73;;;;;;;20.77;88.28;95178.31;4360747;32;20212;-63
2023/06/20 01:56:47;;;;;;;4.17;1.53;;;;;;;20.72;88.72;95181.31;4369306;32;20212;-63
2023/06/20 01:59:15;;;;;;;0.70;0.70;;;;;;;20.76;87.91;95187.53;4305321;32;20287;-63
2023/06/20 02:01:43;;;;;;;1.07;0.93;;;;;;;20.78;87.31;95191.44;4364502;32;20203;-63
2023/06/20 02:04:14;;;;;;;1.67;1.53;;;;;;;20.86;87.34;95195.78;4377526;32;20386;-63
2023/06/20 02:06:45;;;;;;;1.10;1.10;;;;;;;20.86;87.85;95198.47;4366268;32;20277;-63
2023/06/20 02:09:13;;;;;;;1.10;1.10;;;;;;;20.63;88.12;95200.41;4379592;32;20184;-63
2023/06/20 02:11:41;;;;;;;1.23;1.23;;;;;;;20.65;88.60;95206.22;4351985;32;20281;-63
2023/06/20 02:14:12;;;;;;;1.47;1.37;;;;;;;20.71;88.58;95204.78;4350455;32;20208;-63
2023/06/20 02:16:39;;;;;;;1.07;1.07;;;;;;;20.54;88.91;95208.75;4335174;32;20211;-63
2023/06/20 02:19:07;;;;;;;1.83;1.73;;;;;;;20.70;87.68;95210.53;4366009;32;20271;-63
2023/06/20 02:21:40;;;;;;;0.30;0.30;;;;;;;20.69;87.88;95212.47;4347509;32;20257;-63
2023/06/20 02:24:06;;;;;;;1.13;0.97;;;;;;;20.63;88.28;95223.91;4363678;32;20193;-63
2023/06/20 02:26:46;;;;;;;2.63;1.40;;;;;;;20.67;87.93;95214.72;4371828;32;20192;-63
2023/06/20 02:29:20;;;;;;;1.80;1.63;;;;;;;20.74;87.97;95232.97;4370349;32;20179;-63
2023/06/20 02:31:50;;;;;;;7.60;1.80;;;;;;;20.65;88.10;95262.84;4351693;32;20188;-63
2023/06/20 02:34:20;;;;;;;1.10;1.10;;;;;;;20.55;90.28;95317.38;4380579;32;20192;-63
2023/06/20 02:36:47;;;;;;;0.80;0.80;;;;;;;20.42;92.91;95340.97;4369244;32;20193;-63
2023/06/20 02:39:14;;;;;;;1.57;1.50;;;;;;;20.34;93.06;95306.94;4370561;32;20203;-63
2023/06/20 02:41:43;;;;;;;2.40;1.83;;;;;;;20.31;91.18;95331.09;4374592;32;20291;-63
2023/06/20 02:44:09;;;;;;;1.03;1.03;;;;;;;20.24;91.94;95345.19;4361802;32;20274;-63
2023/06/20 02:47:06;;;;;;;2.03;1.93;;;;;;;20.23;92.50;95344.41;4356903;32;20199;-63
2023/06/20 02:50:09;;;;;;;1.13;1.13;;;;;;;20.17;93.09;95335.06;4322334;32;20197;-63
2023/06/20 02:53:03;;;;;;;1.67;1.57;;;;;;;20.06;92.86;95342.16;4362530;32;20203;-63
2023/06/20 02:55:51;;;;;;;1.80;1.70;;;;;;;19.96;92.53;95336.53;4371319;32;20197;-63
2023/06/20 02:58:34;;;;;;;2.10;2.00;;;;;;;19.96;92.88;95339.22;4368919;32;20243;-63
2023/06/20 03:01:05;;;;;;;0.50;0.50;;;;;;;20.00;92.87;95350.84;4373617;32;20202;-63
2023/06/20 03:03:36;;;;;;;1.87;1.77;;;;;;;19.98;92.45;95358.50;4361008;32;20200;-63
2023/06/20 03:06:09;;;;;;;1.47;1.40;;;;;;;19.96;90.70;95352.69;4306619;32;20267;-63
2023/06/20 03:08:38;;;;;;;1.90;1.37;;;;;;;19.94;90.44;95368.44;4379013;32;20244;-63
2023/06/20 03:11:05;;;;;;;2.00;1.13;;;;;;;19.93;90.36;95366.87;4377153;32;20227;-63
2023/06/20 03:13:32;;;;;;;2.00;1.83;;;;;;;19.93;89.82;95372.25;4345611;32;20197;-63
2023/06/20 03:15:58;;;;;;;0.90;0.90;;;;;;;19.84;90.33;95381.31;4360867;32;20192;-63
2023/06/20 03:18:24;;;;;;;1.40;1.37;;;;;;;19.94;89.68;95385.38;4299639;32;20185;-63
2023/06/20 03:20:50;;;;;;;1.70;1.60;;;;;;;19.92;89.53;95378.78;4334841;32;20256;-64
2023/06/20 03:23:18;;;;;;;1.30;1.30;;;;;;;19.84;89.67;95381.31;4369734;32;20185;-63
2023/06/20 03:25:47;;;;;;;1.63;1.60;;;;;;;19.88;89.50;95381.38;4368666;32;20235;-63
2023/06/20 03:28:13;;;;;;;1.23;1.23;;;;;;;19.79;89.36;95389.63;4356148;32;20232;-62
2023/06/20 03:30:52;;;;;;;1.93;1.73;;;;;;;19.88;89.70;95403.72;4372040;32;20291;-63
2023/06/20 03:33:18;;;;;;;1.00;1.00;;;;;;;19.84;88.98;95402.84;4356523;32;20201;-63
2023/06/20 03:35:48;;;;;;;1.93;1.83;;;;;;;19.85;88.67;95401.72;4345719;32;20240;-63
2023/06/20 03:38:16;;;;;;;1.43;1.33;;;;;;;19.92;88.11;95406.47;4337274;32;20201;-63
2023/06/20 03:40:49;;;;;;;0.97;0.97;;;;;;;19.82;88.81;95409.69;4361603;32;20251;-63
2023/06/20 03:43:15;;;;;;;1.23;1.23;;;;;;;19.96;87.73;95411.94;4349644;32;20231;-63
2023/06/20 03:45:49;;;;;;;0.73;0.73;;;;;;;20.04;87.34;95416.34;4361001;32;20193;-63
2023/06/20 03:48:14;;;;;;;0.90;0.90;;;;;;;20.16;86.72;95410.88;4346061;32;20264;-63
2023/06/20 03:50:40;;;;;;;1.27;1.27;;;;;;;20.04;87.80;95413.66;4367708;32;20184;-63
2023/06/20 03:53:11;;;;;;;1.37;0.93;;;;;;;20.02;87.87;95424.00;4350026;32;20181;-63
2023/06/20 03:55:41;;;;;;;1.20;1.20;;;;;;;20.07;87.70;95426.44;4377485;32;20280;-63
2023/06/20 03:58:07;;;;;;;1.20;1.20;;;;;;;20.08;87.42;95422.59;4354538;32;20228;-63
2023/06/20 04:00:33;;;;;;;1.43;1.43;;;;;;;20.20;87.24;95425.16;4359208;32;20243;-63
2023/06/20 04:02:59;;;;;;;1.33;1.03;;;;;;;20.19;87.11;95429.00;4358970;32;20197;-63
2023/06/20 04:05:29;;;;;;;1.37;1.27;;;;;;;20.14;87.06;95430.06;4374510;32;20192;-63
2023/06/20 04:07:55;;;;;;;1.60;1.50;;;;;;;20.21;86.85;95437.50;4345822;32;20243;-63
2023/06/20 04:10:21;;;;;;;0.87;0.87;;;;;;;20.12;87.44;95437.72;4365779;32;20232;-64
2023/06/20 04:12:46;;;;;;;1.60;1.60;;;;;;;20.20;86.77;95430.56;4346655;32;20193;-63
2023/06/20 04:15:17;;;;;;;1.43;1.33;;;;;;;20.35;86.03;95429.75;4359593;32;20204;-63
2023/06/20 04:17:42;;;;;;;1.00;1.00;;;;;;;20.23;87.05;95429.84;4342217;32;20252;-63
2023/06/20 04:20:11;;;;;;;1.70;1.60;;;;;;;20.17;87.16;95428.56;4364234;32;21938;-64
2023/06/20 04:22:42;;;;;;;1.43;1.43;;;;;;;20.03;87.53;95431.72;4337622;32;20249;-63
2023/06/20 04:25:20;;;;;;;1.23;1.00;;;;;;;20.21;86.71;95440.22;4373329;32;20201;-63
2023/06/20 04:27:53;;;;;;;1.23;1.23;;;;;;;20.19;86.79;95437.88;4365488;32;20215;-63
2023/06/20 04:30:20;;;;;;;1.20;1.20;;;;;;;20.29;85.82;95441.94;4370551;32;20238;-64
2023/06/20 04:33:11;;;;;;;0.83;0.83;;;;;;;20.25;86.37;95438.38;4355527;32;20252;-63
2023/06/20 04:35:40;;;;;;;1.43;1.43;;;;;;;20.25;85.86;95444.53;4306448;32;20193;-63
2023/06/20 04:38:08;;;;;;;1.07;1.07;;;;;;;20.30;86.55;95446.19;4314247;32;20248;-63
2023/06/20 04:40:35;;;;;;;2.83;2.43;;;;;;;20.21;86.71;95448.28;4348295;32;20195;-63
2023/06/20 04:43:03;;;;;;;1.70;1.60;;;;;;;20.25;85.87;95439.16;4343555;32;20184;-63
2023/06/20 04:45:30;;;;;;;2.43;1.20;;;;;;;20.29;85.69;95433.84;4370407;32;20291;-63
2023/06/20 04:47:58;;;;;;;0.90;0.90;;;;;;;20.28;86.08;95436.91;4354194;32;20188;-63
2023/06/20 04:50:31;;;;;;;0.90;0.90;;;;;;;20.37;85.66;95434.81;4344583;32;20294;-63
2023/06/20 04:52:58;;;;;;;1.33;1.23;;;;;;;20.41;85.80;95435.66;4325229;32;20212;-63
2023/06/20 04:55:25;;;;;;;1.37;1.27;;;;;;;20.43;85.32;95425.31;4341424;32;20193;-63
2023/06/20 04:57:54;;;;;;;3.17;2.10;;;;;;;20.39;85.61;95427.91;4339519;32;20302;-63
2023/06/20 05:00:22;;;;;;;1.10;1.10;;;;;;;20.31;86.31;95420.03;4350398;32;20211;-64
2023/06/20 05:02:48;;;;;;;1.00;1.00;;;;;;;20.31;86.16;95425.41;4348593;32;20213;-63
2023/06/20 05:05:15;;;;;;;0.67;0.67;;;;;;;20.34;85.93;95430.09;4346498;32;20185;-63
2023/06/20 05:07:44;;;;;;;1.33;1.10;;;;;;;20.36;85.87;95434.00;4355201;32;20188;-63
2023/06/20 05:10:10;;;;;;;0.87;0.87;;;;;;;20.34;86.15;95436.28;4317123;32;20242;-63
2023/06/20 05:12:39;;;;;;;1.17;1.17;;;;;;;20.42;85.73;95450.69;4286612;32;20204;-63
2023/06/20 05:15:09;;;;;;;1.33;1.33;;;;;;;20.41;86.47;95458.00;4363304;32;20235;-63
2023/06/20 05:17:35;;;;;;;1.00;1.00;;;;;;;20.46;86.69;95460.44;4324095;32;20204;-63
2023/06/20 05:20:20;;;;;;;0.80;0.80;;;;;;;20.47;85.60;95461.22;4327064;32;20184;-63
2023/06/20 05:22:46;;;;;;;1.37;1.27;;;;;;;20.55;86.20;95461.03;4331010;32;20204;-63
2023/06/20 05:25:12;;;;;;;1.43;1.37;;;;;;;20.49;86.63;95457.03;4326940;32;20210;-63
2023/06/20 05:27:39;;;;;;;1.27;1.27;;;;;;;20.63;85.70;95459.22;4342974;32;23293;-63
2023/06/20 05:30:13;;;;;;;2.30;2.10;;;;;;;20.67;85.33;95454.69;4366985;32;20236;-64
2023/06/20 05:32:39;;;;;;;1.17;1.17;;;;;;;20.69;85.48;95455.12;4331481;32;20284;-63
2023/06/20 05:35:07;;;;;;;1.10;1.10;;;;;;;20.69;86.43;95460.53;4340109;32;20228;-63
2023/06/20 05:37:35;;;;;;;0.77;0.77;;;;;;;20.72;84.81;95457.13;4362727;32;20224;-63
2023/06/20 05:40:09;;;;;;;1.37;1.30;;;;;;;20.79;84.23;95461.84;4362436;32;20251;-63
2023/06/20 05:42:37;;;;;;;1.63;1.63;;;;;;;20.82;85.71;95455.75;4354330;32;20243;-63
2023/06/20 05:45:10;;;;;;;1.40;1.40;;;;;;;20.83;86.05;95451.94;4382115;32;20199;-63
2023/06/20 05:47:35;;;;;;;1.57;1.53;;;;;;;20.96;84.08;95463.38;4324954;32;20208;-63
2023/06/20 05:50:06;;;;;;;1.37;1.37;;;;;;;21.07;83.61;95456.25;4361377;32;20180;-63
2023/06/20 05:52:32;;;;;;;1.70;1.60;;;;;;;21.17;82.91;95455.69;4349884;32;20201;-63
2023/06/20 05:54:59;;;;;;;1.50;1.50;;;;;;;21.23;83.57;95463.12;4320410;32;20197;-63
2023/06/20 05:57:24;;;;;;;0.90;0.90;;;;;;;21.21;84.29;95462.72;4313415;32;20204;-63
2023/06/20 05:59:51;;;;;;;1.53;1.53;;;;;;;21.19;83.83;95461.50;4265840;32;20181;-64
2023/06/20 06:02:17;;;;;;;3.40;2.10;;;;;;;21.24;85.10;95478.19;4360822;32;20265;-63
2023/06/20 06:04:46;;;;;;;1.53;1.43;;;;;;;21.30;83.86;95475.22;4366928;32;20181;-63
2023/06/20 06:07:11;;;;;;;2.70;1.43;;;;;;;21.39;84.19;95473.84;4344638;32;20276;-63
2023/06/20 06:09:41;;;;;;;1.87;1.43;;;;;;;21.53;83.50;95459.81;4320876;32;20266;-63
2023/06/20 06:12:10;;;;;;;1.43;1.43;;;;;;;21.43;84.06;95469.28;4316409;32;20194;-63
2023/06/20 06:14:35;;;;;;;2.70;1.13;;;;;;;21.46;84.65;95467.78;4314973;32;20205;-63
2023/06/20 06:17:01;;;;;;;0.83;0.83;;;;;;;21.45;82.92;95468.94;4329315;32;20234;-63
2023/06/20 06:19:26;;;;;;;1.63;1.57;;;;;;;21.50;84.54;95463.22;4354917;32;20192;-63
2023/06/20 06:21:52;;;;;;;1.27;1.17;;;;;;;21.53;83.30;95459.81;4364915;32;20262;-63
2023/06/20 06:24:21;;;;;;;0.80;0.80;;;;;;;21.48;82.49;95452.78;4334666;32;20208;-63
2023/06/20 06:26:48;;;;;;;1.13;1.13;;;;;;;21.52;82.96;95450.16;4375623;32;20208;-63
2023/06/20 06:29:15;;;;;;;1.27;1.27;;;;;;;21.50;82.29;95455.91;4358665;32;20243;-63
2023/06/20 06:31:43;;;;;;;2.20;1.43;;;;;;;21.52;84.14;95452.84;4348137;32;20304;-63
2023/06/20 06:34:16;;;;;;;0.80;0.80;;;;;;;21.57;82.75;95449.88;4323079;32;20189;-64
2023/06/20 06:36:48;;;;;;;1.23;1.23;;;;;;;21.61;84.20;95456.13;4359231;32;20196;-63
2023/06/20 06:39:28;;;;;;;1.17;1.17;;;;;;;21.59;82.94;95455.69;4337478;32;20279;-63
2023/06/20 06:41:59;;;;;;;1.53;1.37;;;;;;;21.71;82.98;95452.78;4325377;32;20212;-64
2023/06/20 06:44:38;;;;;;;1.47;1.43;;;;;;;21.66;83.67;95458.50;4281185;32;20198;-61
2023/06/20 06:47:06;;;;;;;1.03;1.03;;;;;;;21.61;81.91;95458.81;4288118;32;20252;-61
2023/06/20 06:49:37;;;;;;;1.47;1.37;;;;;;;21.64;78.72;95455.38;4342215;32;20212;-60
2023/06/20 06:52:03;;;;;;;1.20;1.20;;;;;;;21.68;80.06;95452.72;4316595;32;20288;-61
2023/06/20 06:54:34;;;;;;;0.97;0.97;;;;;;;21.72;78.25;95448.94;4293512;32;20190;-61
2023/06/20 06:57:01;;;;;;;1.60;1.60;;;;;;;21.67;81.72;95446.53;4342137;32;20236;-61
2023/06/20 06:59:27;;;;;;;0.60;0.60;;;;;;;21.63;78.35;95445.69;4296645;32;20231;-61
2023/06/20 07:02:06;;;;;;;0.90;0.90;;;;;;;21.69;81.85;95448.88;4253311;32;20235;-61
2023/06/20 07:04:37;;;;;;;1.00;1.00;;;;;;;21.56;82.22;95459.88;4212999;32;20202;-60
2023/06/20 07:07:19;;;;;;;0.70;0.70;;;;;;;21.49;83.08;95453.56;4321721;32;20239;-59
2023/06/20 07:09:45;;;;;;;0.87;0.87;;;;;;;21.51;81.71;95454.00;4340499;32;20188;-59
2023/06/20 07:12:15;;;;;;;0.90;0.90;;;;;;;21.46;83.17;95446.97;4333371;32;21248;-59
2023/06/20 07:14:46;;;;;;;0.87;0.87;;;;;;;21.52;80.91;95442.06;4283418;32;20201;-59
2023/06/20 07:17:14;;;;;;;1.33;1.23;;;;;;;21.52;80.73;95444.75;4327032;32;20279;-60
2023/06/20 07:19:50;;;;;;;1.00;1.00;;;;;;;21.52;83.08;95437.44;4338958;32;20208;-60
2023/06/20 07:22:24;;;;;;;1.40;1.40;;;;;;;21.48;83.49;95433.91;4315844;32;22018;-60
2023/06/20 07:24:52;;;;;;;1.20;1.20;;;;;;;21.43;81.06;95436.09;4308979;32;20197;-60
2023/06/20 07:27:23;;;;;;;0.83;0.83;;;;;;;21.35;85.02;95429.03;4331398;32;20257;-60
2023/06/20 07:29:54;;;;;;;2.90;1.40;;;;;;;21.38;82.00;95414.81;4368971;32;20209;-60
2023/06/20 07:32:21;;;;;;;1.43;1.43;;;;;;;21.29;85.26;95408.88;4334649;32;20193;-60
2023/06/20 07:34:54;;;;;;;2.07;1.37;;;;;;;21.17;85.79;95407.88;4320510;32;20208;-60
2023/06/20 07:37:30;;;;;;;1.93;1.60;;;;;;;21.18;84.75;95403.28;4362780;32;20197;-59
2023/06/20 07:39:55;;;;;;;1.00;1.00;;;;;;;21.26;83.15;95397.66;4313599;32;20291;-60
2023/06/20 07:42:25;;;;;;;1.00;1.00;;;;;;;21.31;83.63;95393.88;4301812;32;20257;-60
2023/06/20 07:44:55;;;;;;;1.53;1.43;;;;;;;21.33;85.10;95391.59;4334020;32;20241;-61
2023/06/20 07:47:21;;;;;;;0.80;0.80;;;;;;;21.38;84.72;95396.72;4345208;32;20238;-59
2023/06/20 07:49:47;;;;;;;1.93;1.50;;;;;;;21.51;84.03;95395.38;4369447;32;20188;-60
2023/06/20 07:52:24;;;;;;;1.00;1.00;;;;;;;21.62;83.85;95407.13;4319227;32;20311;-60
2023/06/20 07:55:18;;;;;;;0.87;0.87;;;;;;;21.79;82.45;95402.38;4236668;32;20262;-59
2023/06/20 07:57:45;;;;;;;1.00;1.00;;;;;;;21.85;83.10;95400.91;4344980;32;20193;-59
2023/06/20 08:00:12;;;;;;;1.57;1.53;;;;;;;21.92;82.82;95390.22;4325590;32;20203;-59
2023/06/20 08:02:52;;;;;;;0.80;0.80;;;;;;;21.94;80.95;95390.63;4319510;32;20200;-60
2023/06/20 08:05:24;;;;;;;1.33;1.27;;;;;;;22.02;82.96;95383.44;4310246;32;20186;-58
2023/06/20 08:07:54;;;;;;;0.80;0.80;;;;;;;22.13;79.98;95382.44;4281169;32;20204;-60
2023/06/20 08:10:22;;;;;;;1.53;1.43;;;;;;;22.26;80.43;95386.47;4298701;32;20208;-59
2023/06/20 08:12:57;;;;;;;2.50;2.00;;;;;;;22.42;78.38;95382.81;4305947;32;20211;-59
2023/06/20 08:15:29;;;;;;;1.53;1.33;;;;;;;22.53;78.86;95381.78;4330971;32;20211;-61
2023/06/20 08:17:55;;;;;;;0.63;0.63;;;;;;;22.65;75.95;95385.41;4268811;32;20225;-61
2023/06/20 08:20:21;;;;;;;1.60;1.17;;;;;;;22.67;76.82;95380.38;4217317;32;20254;-60
2023/06/20 08:23:02;;;;;;;1.30;1.30;;;;;;;22.82;76.67;95374.03;4306340;32;20203;-60
2023/06/20 08:25:30;;;;;;;0.87;0.87;;;;;;;22.89;74.71;95387.63;4349872;32;20201;-60
2023/06/20 08:28:12;;;;;;;1.50;1.10;;;;;;;23.12;74.14;95382.84;4335937;32;20310;-61
2023/06/20 08:30:40;;;;;;;0.60;0.60;;;;;;;23.18;73.42;95386.78;4300025;32;20316;-59
2023/06/20 08:33:11;;;;;;;0.67;0.67;;;;;;;23.41;72.48;95394.72;4309705;32;20210;-59
2023/06/20 08:35:44;;;;;;;1.73;1.47;;;;;;;23.66;71.52;95386.84;4296401;32;20245;-59
2023/06/20 08:38:27;;;;;;;0.60;0.60;;;;;;;23.57;70.77;95383.66;4281577;32;20235;-61
2023/06/20 08:40:58;;;;;;;0.70;0.70;;;;;;;23.88;66.15;95391.28;4243854;32;20295;-62
2023/06/20 08:43:31;;;;;;;0.93;0.93;;;;;;;23.77;67.41;95382.28;4281174;32;20204;-61
2023/06/20 08:46:02;;;;;;;1.47;1.37;;;;;;;23.70;67.83;95373.31;4262039;32;20326;-61
2023/06/20 08:48:41;;;;;;;0.90;0.90;;;;;;;23.66;66.94;95386.84;4346839;32;20219;-61
2023/06/20 08:51:21;;;;;;;1.00;1.00;;;;;;;23.61;68.01;95373.66;4348595;32;20260;-61
2023/06/20 08:54:23;;;;;;;0.73;0.73;;;;;;;23.74;65.93;95374.87;4310851;32;20181;-62
2023/06/20 08:56:54;;;;;;;1.07;1.07;;;;;;;23.99;65.50;95369.66;4249505;32;20242;-62
2023/06/20 08:59:26;;;;;;;0.60;0.50;;;;;;;24.00;62.71;95365.78;4307452;32;20286;-62
2023/06/20 09:01:57;;;;;;;3.40;1.23;;;;;;;24.11;60.80;95361.19;4257975;32;20288;-61
2023/06/20 09:05:02;;;;;;;0.47;0.47;;;;;;;24.26;61.43;95362.88;4255069;32;20206;-62
2023/06/20 09:07:41;;;;;;;0.60;0.60;;;;;;;24.24;60.91;95358.97;4233068;32;20244;-62
2023/06/20 09:10:09;;;;;;;1.30;0.93;;;;;;;24.20;61.21;95353.50;4314018;32;20195;-62
2023/06/20 09:12:58;;;;;;;1.17;0.87;;;;;;;24.15;60.91;95351.13;4303758;32;20185;-62
2023/06/20 09:15:33;;;;;;;7.10;1.07;;;;;;;24.46;60.53;95349.00;4311038;32;20196;-62
2023/06/20 09:18:06;;;;;;;0.87;0.87;;;;;;;24.60;57.59;95349.81;4264831;32;20234;-62
2023/06/20 09:20:32;;;;;;;2.90;1.20;;;;;;;24.56;58.51;95343.59;4324424;32;20203;-62
2023/06/20 09:23:06;;;;;;;0.87;0.87;;;;;;;24.44;58.65;95341.25;4330878;32;20204;-62
2023/06/20 09:25:35;;;;;;;0.70;0.70;;;;;;;24.72;57.82;95345.22;4325232;32;20202;-61
2023/06/20 09:28:15;;;;;;;0.20;0.20;;;;;;;24.61;58.07;95337.03;4315304;32;20248;-61
2023/06/20 09:31:10;;;;;;;0.67;0.67;;;;;;;24.77;57.30;95333.97;4343955;32;20181;-61
2023/06/20 09:33:48;;;;;;;0.77;0.77;;;;;;;24.76;56.26;95329.69;4349078;32;20239;-61
2023/06/20 09:36:15;;;;;;;0.93;0.93;;;;;;;24.88;56.82;95330.13;4282919;32;20257;-61
2023/06/20 09:38:52;;;;;;;0.50;0.50;;;;;;;24.84;56.09;95321.19;4305224;32;20196;-61
2023/06/20 09:41:21;;;;;;;0.60;0.60;;;;;;;25.23;53.67;95331.38;4358817;32;20180;-61
2023/06/20 09:43:52;;;;;;;0.97;0.97;;;;;;;25.47;52.96;95327.88;4315627;32;20297;-61
2023/06/20 09:46:27;;;;;;;0.40;0.40;;;;;;;25.64;50.34;95323.63;4285780;32;20305;-61
2023/06/20 09:48:57;;;;;;;0.60;0.60;;;;;;;25.44;52.81;95323.22;4340874;32;20188;-62
2023/06/20 09:51:27;;;;;;;1.40;0.87;;;;;;;25.36;53.60;95318.19;4287767;32;20253;-61
2023/06/20 09:54:10;;;;;;;0.57;0.57;;;;;;;25.46;53.84;95320.13;4325232;32;20184;-61
2023/06/20 09:56:52;;;;;;;1.17;0.67;;;;;;;25.55;53.92;95310.41;4304961;32;20299;-61
2023/06/20 09:59:32;;;;;;;0.83;0.80;;;;;;;25.50;54.58;95310.03;4320348;32;20253;-61
2023/06/20 10:02:25;;;;;;;0.57;0.57;;;;;;;25.57;54.34;95301.84;4347951;32;20319;-61
2023/06/20 10:04:52;;;;;;;0.57;0.57;;;;;;;25.65;54.08;95303.44;4369688;32;20264;-61
2023/06/20 10:07:23;;;;;;;0.80;0.80;;;;;;;25.77;53.66;95302.28;4298301;32;20205;-62
2023/06/20 10:09:56;;;;;;;0.90;0.90;;;;;;;25.83;53.17;95292.53;4363012;32;20176;-61
2023/06/20 10:12:24;;;;;;;2.20;1.27;;;;;;;26.32;50.71;95297.06;4352446;32;20174;-66
2023/06/20 10:15:07;;;;;;;0.50;0.50;;;;;;;26.29;51.27;95295.91;4335524;32;20278;-64
2023/06/20 10:17:40;;;;;;;0.70;0.70;;;;;;;26.32;49.79;95291.63;4379923;32;20189;-65
2023/06/20 10:20:28;;;;;;;0.60;0.60;;;;;;;26.47;48.77;95284.16;4317059;32;20241;-64
2023/06/20 10:23:25;;;;;;;0.43;0.40;;;;;;;26.73;47.33;95282.87;4251656;32;20231;-64
2023/06/20 10:26:05;;;;;;;0.40;0.40;;;;;;;26.75;47.92;95283.25;4267195;32;20208;-65
2023/06/20 10:28:55;;;;;;;0.20;0.20;;;;;;;26.74;48.55;95276.25;4280982;32;20237;-64
2023/06/20 10:31:22;;;;;;;0.80;0.80;;;;;;;26.69;48.48;95278.22;4273887;32;20187;-63
2023/06/20 10:33:47;;;;;;;1.30;1.20;;;;;;;26.82;47.16;95283.19;4305605;32;20276;-64
2023/06/20 10:36:42;;;;;;;0.50;0.50;;;;;;;26.90;47.66;95287.44;4323894;32;20271;-63
2023/06/20 10:40:17;;;;;;;2.47;1.60;;;;;;;26.88;47.45;95278.88;4373249;32;20276;-63
2023/06/20 10:42:44;;;;;;;1.33;1.23;;;;;;;26.83;47.19;95271.91;4373102;32;20299;-64
2023/06/20 10:45:43;;;;;;;0.57;0.50;;;;;;;27.03;44.95;95272.94;4328800;32;20268;-63
2023/06/20 10:48:12;;;;;;;0.80;0.80;;;;;;;27.11;44.96;95265.50;4349664;32;20192;-63
2023/06/20 10:50:37;;;;;;;0.97;0.97;;;;;;;27.10;44.66;95260.47;4330069;32;20197;-64
2023/06/20 10:53:21;;;;;;;1.87;1.77;;;;;;;27.01;45.49;95256.25;4331396;32;20242;-63
2023/06/20 10:55:55;;;;;;;0.77;0.77;;;;;;;27.01;46.19;95255.50;4331924;32;20226;-63
2023/06/20 10:58:22;;;;;;;0.57;0.57;;;;;;;27.05;46.41;95256.22;4284321;32;20235;-64
2023/06/20 11:00:50;;;;;;;0.63;0.63;;;;;;;27.04;46.04;95254.66;4307011;32;20203;-64
2023/06/20 11:03:25;;;;;;;0.30;0.30;;;;;;;27.22;44.49;95247.16;4379969;32;20275;-63
2023/06/20 11:06:00;;;;;;;0.73;0.73;;;;;;;27.33;43.78;95247.81;4371591;32;20188;-64
2023/06/20 11:08:33;;;;;;;2.10;0.77;;;;;;;27.44;44.07;95242.25;4229092;32;20188;-64
2023/06/20 11:11:06;;;;;;;0.47;0.47;;;;;;;27.50;43.86;95237.91;4304688;32;20267;-64
2023/06/20 11:13:48;;;;;;;0.83;0.83;;;;;;;27.62;43.49;95237.44;4317159;32;20204;-63
2023/06/20 11:16:18;;;;;;;0.60;0.60;;;;;;;27.58;44.78;95233.97;4300328;32;20298;-63
2023/06/20 11:19:09;;;;;;;0.70;0.70;;;;;;;27.51;45.02;95231.28;4370518;32;20199;-62
2023/06/20 11:21:40;;;;;;;0.40;0.40;;;;;;;27.48;45.05;95223.13;4318782;32;20212;-63
2023/06/20 11:24:22;;;;;;;0.60;0.60;;;;;;;27.57;43.64;95218.81;4324649;32;20228;-64
2023/06/20 11:26:56;;;;;;;0.57;0.57;;;;;;;27.75;42.99;95221.34;4356145;32;20188;-63
2023/06/20 11:29:50;;;;;;;0.60;0.60;;;;;;;27.87;41.53;95218.06;4322608;32;20205;-63
2023/06/20 11:32:23;;;;;;;1.57;1.53;;;;;;;27.85;42.41;95220.44;4293894;32;20262;-64
2023/06/20 11:34:59;;;;;;;0.80;0.80;;;;;;;27.78;43.27;95209.63;4366113;32;20247;-63
2023/06/20 11:37:25;;;;;;;1.17;1.07;;;;;;;27.78;42.69;95206.87;4376911;32;20192;-63
2023/06/20 11:39:52;;;;;;;0.33;0.33;;;;;;;27.74;42.99;95205.38;4322457;32;20256;-64
2023/06/20 11:42:45;;;;;;;0.50;0.50;;;;;;;27.72;43.55;95216.69;4305763;32;20249;-64
2023/06/20 11:45:20;;;;;;;1.67;1.57;;;;;;;27.71;42.97;95209.69;4311191;32;20265;-65
2023/06/20 11:47:45;;;;;;;1.03;1.03;;;;;;;27.74;43.35;95202.66;4295678;32;20331;-63
2023/06/20 11:50:30;;;;;;;0.70;0.70;;;;;;;27.84;41.82;95202.53;4310768;32;20189;-64
2023/06/20 11:53:01;;;;;;;0.30;0.30;;;;;;;27.88;41.06;95195.06;4312343;32;20256;-64
2023/06/20 11:55:49;;;;;;;0.60;0.60;;;;;;;27.91;41.57;95196.97;4343290;32;20228;-64
2023/06/20 11:58:27;;;;;;;0.63;0.63;;;;;;;27.89;41.68;95193.88;4365531;32;20181;-64
2023/06/20 12:01:35;;;;;;;0.57;0.57;;;;;;;28.08;40.41;95195.22;4353184;32;20189;-64